sensor_id;sensor_type;location;lat;lon;timestamp;P1;durP1;ratioP1;P2;durP2;ratioP2
34497;SDS011;20744;50.938;7.286;2023-08-31T00:00:43;93.60;;;12.10;;
34497;SDS011;20744;50.938;7.286;2023-08-31T00:03:11;14.63;;;9.85;;
34497;SDS011;20744;50.938;7.286;2023-08-31T00:05:40;397.05;;;19.70;;
34497;SDS011;20744;50.938;7.286;2023-08-31T00:08:08;72.97;;;10.52;;
34497;SDS011;20744;50.938;7.286;2023-08-31T00:10:36;13.20;;;10.20;;
34497;SDS011;20744;50.938;7.286;2023-08-31T00:13:05;13.85;;;10.40;;
34497;SDS011;20744;50.938;7.286;2023-08-31T00:15:32;16.27;;;11.25;;
34497;SDS011;20744;50.938;7.286;2023-08-31T00:18:00;16.98;;;11.40;;
34497;SDS011;20744;50.938;7.286;2023-08-31T00:20:29;16.63;;;11.70;;
34497;SDS011;20744;50.938;7.286;2023-08-31T00:22:59;16.75;;;10.55;;
34497;SDS011;20744;50.938;7.286;2023-08-31T00:25:26;20.10;;;11.95;;
34497;SDS011;20744;50.938;7.286;2023-08-31T00:27:54;14.50;;;10.88;;
34497;SDS011;20744;50.938;7.286;2023-08-31T00:30:22;15.25;;;10.70;;
34497;SDS011;20744;50.938;7.286;2023-08-31T00:32:54;21.05;;;11.20;;
34497;SDS011;20744;50.938;7.286;2023-08-31T00:35:25;17.50;;;10.15;;
34497;SDS011;20744;50.938;7.286;2023-08-31T00:37:52;19.45;;;10.80;;
34497;SDS011;20744;50.938;7.286;2023-08-31T00:40:23;16.33;;;10.77;;
34497;SDS011;20744;50.938;7.286;2023-08-31T00:42:50;16.08;;;9.45;;
34497;SDS011;20744;50.938;7.286;2023-08-31T00:45:18;15.55;;;9.55;;
34497;SDS011;20744;50.938;7.286;2023-08-31T00:47:45;12.80;;;9.38;;
34497;SDS011;20744;50.938;7.286;2023-08-31T00:50:14;17.63;;;10.32;;
34497;SDS011;20744;50.938;7.286;2023-08-31T00:52:42;17.65;;;9.95;;
34497;SDS011;20744;50.938;7.286;2023-08-31T00:55:10;14.23;;;10.23;;
34497;SDS011;20744;50.938;7.286;2023-08-31T00:57:39;13.68;;;9.93;;
34497;SDS011;20744;50.938;7.286;2023-08-31T01:00:07;15.13;;;9.68;;
34497;SDS011;20744;50.938;7.286;2023-08-31T01:02:40;15.18;;;10.10;;
34497;SDS011;20744;50.938;7.286;2023-08-31T01:05:11;17.13;;;9.50;;
34497;SDS011;20744;50.938;7.286;2023-08-31T01:07:43;18.02;;;8.93;;
34497;SDS011;20744;50.938;7.286;2023-08-31T01:10:14;15.85;;;9.52;;
34497;SDS011;20744;50.938;7.286;2023-08-31T01:12:53;16.80;;;9.55;;
34497;SDS011;20744;50.938;7.286;2023-08-31T01:15:21;24.48;;;9.15;;
34497;SDS011;20744;50.938;7.286;2023-08-31T01:17:50;19.10;;;8.98;;
34497;SDS011;20744;50.938;7.286;2023-08-31T01:20:19;17.30;;;9.18;;
34497;SDS011;20744;50.938;7.286;2023-08-31T01:22:52;12.25;;;9.73;;
34497;SDS011;20744;50.938;7.286;2023-08-31T01:25:23;12.00;;;8.55;;
34497;SDS011;20744;50.938;7.286;2023-08-31T01:27:51;12.07;;;8.98;;
34497;SDS011;20744;50.938;7.286;2023-08-31T01:30:18;15.95;;;8.50;;
34497;SDS011;20744;50.938;7.286;2023-08-31T01:32:47;20.83;;;9.63;;
34497;SDS011;20744;50.938;7.286;2023-08-31T01:35:14;19.40;;;10.70;;
34497;SDS011;20744;50.938;7.286;2023-08-31T01:37:44;23.08;;;11.18;;
34497;SDS011;20744;50.938;7.286;2023-08-31T01:40:13;16.30;;;10.18;;
34497;SDS011;20744;50.938;7.286;2023-08-31T01:42:44;14.68;;;9.57;;
34497;SDS011;20744;50.938;7.286;2023-08-31T01:45:13;17.58;;;11.20;;
34497;SDS011;20744;50.938;7.286;2023-08-31T01:47:41;16.60;;;10.50;;
34497;SDS011;20744;50.938;7.286;2023-08-31T01:50:09;20.80;;;10.07;;
34497;SDS011;20744;50.938;7.286;2023-08-31T01:52:36;16.88;;;9.07;;
34497;SDS011;20744;50.938;7.286;2023-08-31T01:55:03;14.02;;;9.35;;
34497;SDS011;20744;50.938;7.286;2023-08-31T01:57:31;16.08;;;9.70;;
34497;SDS011;20744;50.938;7.286;2023-08-31T02:00:00;20.15;;;9.80;;
34497;SDS011;20744;50.938;7.286;2023-08-31T02:02:28;15.13;;;9.57;;
34497;SDS011;20744;50.938;7.286;2023-08-31T02:04:56;19.90;;;9.38;;
34497;SDS011;20744;50.938;7.286;2023-08-31T02:07:26;13.77;;;9.30;;
34497;SDS011;20744;50.938;7.286;2023-08-31T02:09:53;14.50;;;9.43;;
34497;SDS011;20744;50.938;7.286;2023-08-31T02:12:21;20.13;;;10.10;;
34497;SDS011;20744;50.938;7.286;2023-08-31T02:14:48;13.70;;;9.32;;
34497;SDS011;20744;50.938;7.286;2023-08-31T02:17:17;19.10;;;9.90;;
34497;SDS011;20744;50.938;7.286;2023-08-31T02:19:45;24.80;;;11.52;;
34497;SDS011;20744;50.938;7.286;2023-08-31T02:22:12;13.05;;;9.63;;
34497;SDS011;20744;50.938;7.286;2023-08-31T02:24:39;22.20;;;11.35;;
34497;SDS011;20744;50.938;7.286;2023-08-31T02:27:06;15.20;;;9.65;;
34497;SDS011;20744;50.938;7.286;2023-08-31T02:29:34;17.25;;;9.57;;
34497;SDS011;20744;50.938;7.286;2023-08-31T02:32:03;22.73;;;10.00;;
34497;SDS011;20744;50.938;7.286;2023-08-31T02:34:32;16.77;;;10.23;;
34497;SDS011;20744;50.938;7.286;2023-08-31T02:36:59;16.98;;;9.93;;
34497;SDS011;20744;50.938;7.286;2023-08-31T02:39:26;13.93;;;9.38;;
34497;SDS011;20744;50.938;7.286;2023-08-31T02:41:53;14.52;;;9.75;;
34497;SDS011;20744;50.938;7.286;2023-08-31T02:44:21;20.23;;;10.40;;
34497;SDS011;20744;50.938;7.286;2023-08-31T02:46:48;17.48;;;10.25;;
34497;SDS011;20744;50.938;7.286;2023-08-31T02:49:15;15.40;;;10.30;;
34497;SDS011;20744;50.938;7.286;2023-08-31T02:51:44;21.95;;;9.98;;
34497;SDS011;20744;50.938;7.286;2023-08-31T02:54:11;16.13;;;10.23;;
34497;SDS011;20744;50.938;7.286;2023-08-31T02:56:39;15.10;;;9.85;;
34497;SDS011;20744;50.938;7.286;2023-08-31T02:59:06;17.77;;;9.40;;
34497;SDS011;20744;50.938;7.286;2023-08-31T03:01:33;20.55;;;9.93;;
34497;SDS011;20744;50.938;7.286;2023-08-31T03:04:00;20.45;;;10.30;;
34497;SDS011;20744;50.938;7.286;2023-08-31T03:06:28;13.20;;;10.25;;
34497;SDS011;20744;50.938;7.286;2023-08-31T03:08:57;15.70;;;10.30;;
34497;SDS011;20744;50.938;7.286;2023-08-31T03:11:24;20.73;;;9.45;;
34497;SDS011;20744;50.938;7.286;2023-08-31T03:13:51;21.13;;;9.95;;
34497;SDS011;20744;50.938;7.286;2023-08-31T03:16:18;17.98;;;10.27;;
34497;SDS011;20744;50.938;7.286;2023-08-31T03:18:46;18.52;;;8.75;;
34497;SDS011;20744;50.938;7.286;2023-08-31T03:21:13;17.55;;;8.73;;
34497;SDS011;20744;50.938;7.286;2023-08-31T03:23:40;13.00;;;8.70;;
34497;SDS011;20744;50.938;7.286;2023-08-31T03:26:09;21.45;;;9.98;;
34497;SDS011;20744;50.938;7.286;2023-08-31T03:28:36;14.13;;;9.10;;
34497;SDS011;20744;50.938;7.286;2023-08-31T03:31:05;15.93;;;9.98;;
34497;SDS011;20744;50.938;7.286;2023-08-31T03:33:33;22.00;;;10.57;;
34497;SDS011;20744;50.938;7.286;2023-08-31T03:36:00;15.10;;;9.57;;
34497;SDS011;20744;50.938;7.286;2023-08-31T03:38:29;16.40;;;9.70;;
34497;SDS011;20744;50.938;7.286;2023-08-31T03:40:57;17.88;;;10.00;;
34497;SDS011;20744;50.938;7.286;2023-08-31T03:43:26;16.45;;;10.23;;
34497;SDS011;20744;50.938;7.286;2023-08-31T03:45:53;19.92;;;9.68;;
34497;SDS011;20744;50.938;7.286;2023-08-31T03:48:21;20.83;;;9.73;;
34497;SDS011;20744;50.938;7.286;2023-08-31T03:50:49;20.58;;;9.75;;
34497;SDS011;20744;50.938;7.286;2023-08-31T03:53:17;18.02;;;10.27;;
34497;SDS011;20744;50.938;7.286;2023-08-31T03:55:44;20.15;;;9.40;;
34497;SDS011;20744;50.938;7.286;2023-08-31T03:58:12;17.23;;;9.35;;
34497;SDS011;20744;50.938;7.286;2023-08-31T04:00:40;14.70;;;9.32;;
34497;SDS011;20744;50.938;7.286;2023-08-31T04:03:08;25.00;;;9.35;;
34497;SDS011;20744;50.938;7.286;2023-08-31T04:05:35;17.75;;;8.50;;
34497;SDS011;20744;50.938;7.286;2023-08-31T04:08:02;15.18;;;8.40;;
34497;SDS011;20744;50.938;7.286;2023-08-31T04:10:30;20.33;;;9.45;;
34497;SDS011;20744;50.938;7.286;2023-08-31T04:12:58;16.77;;;8.52;;
34497;SDS011;20744;50.938;7.286;2023-08-31T04:15:25;14.00;;;7.68;;
34497;SDS011;20744;50.938;7.286;2023-08-31T04:17:53;24.70;;;8.57;;
34497;SDS011;20744;50.938;7.286;2023-08-31T04:20:21;12.05;;;7.80;;
34497;SDS011;20744;50.938;7.286;2023-08-31T04:22:48;17.73;;;7.90;;
34497;SDS011;20744;50.938;7.286;2023-08-31T04:25:15;12.45;;;7.30;;
34497;SDS011;20744;50.938;7.286;2023-08-31T04:27:42;19.10;;;8.15;;
34497;SDS011;20744;50.938;7.286;2023-08-31T04:30:10;14.90;;;7.78;;
34497;SDS011;20744;50.938;7.286;2023-08-31T04:32:38;12.85;;;7.75;;
34497;SDS011;20744;50.938;7.286;2023-08-31T04:35:07;20.60;;;7.45;;
34497;SDS011;20744;50.938;7.286;2023-08-31T04:37:34;10.50;;;6.82;;
34497;SDS011;20744;50.938;7.286;2023-08-31T04:40:02;11.27;;;7.25;;
34497;SDS011;20744;50.938;7.286;2023-08-31T04:42:30;10.77;;;7.50;;
34497;SDS011;20744;50.938;7.286;2023-08-31T04:44:57;17.02;;;7.35;;
34497;SDS011;20744;50.938;7.286;2023-08-31T04:47:24;12.20;;;7.22;;
34497;SDS011;20744;50.938;7.286;2023-08-31T04:49:52;9.55;;;6.90;;
34497;SDS011;20744;50.938;7.286;2023-08-31T04:52:21;15.90;;;7.50;;
34497;SDS011;20744;50.938;7.286;2023-08-31T04:54:48;15.60;;;8.25;;
34497;SDS011;20744;50.938;7.286;2023-08-31T04:57:15;11.77;;;8.48;;
34497;SDS011;20744;50.938;7.286;2023-08-31T04:59:42;15.38;;;7.97;;
34497;SDS011;20744;50.938;7.286;2023-08-31T05:02:10;13.85;;;7.90;;
34497;SDS011;20744;50.938;7.286;2023-08-31T05:04:37;18.55;;;7.93;;
34497;SDS011;20744;50.938;7.286;2023-08-31T05:07:04;11.38;;;6.70;;
34497;SDS011;20744;50.938;7.286;2023-08-31T05:09:32;13.50;;;6.78;;
34497;SDS011;20744;50.938;7.286;2023-08-31T05:12:00;11.70;;;7.28;;
34497;SDS011;20744;50.938;7.286;2023-08-31T05:14:28;14.38;;;6.38;;
34497;SDS011;20744;50.938;7.286;2023-08-31T05:16:55;16.45;;;7.80;;
34497;SDS011;20744;50.938;7.286;2023-08-31T05:19:22;13.05;;;7.93;;
34497;SDS011;20744;50.938;7.286;2023-08-31T05:21:50;11.02;;;7.30;;
34497;SDS011;20744;50.938;7.286;2023-08-31T05:24:17;9.20;;;6.32;;
34497;SDS011;20744;50.938;7.286;2023-08-31T05:26:46;9.68;;;7.10;;
34497;SDS011;20744;50.938;7.286;2023-08-31T05:29:13;15.63;;;8.35;;
34497;SDS011;20744;50.938;7.286;2023-08-31T05:31:40;12.35;;;8.05;;
34497;SDS011;20744;50.938;7.286;2023-08-31T05:34:09;16.10;;;7.53;;
34497;SDS011;20744;50.938;7.286;2023-08-31T05:36:36;14.68;;;7.95;;
34497;SDS011;20744;50.938;7.286;2023-08-31T05:39:03;17.30;;;8.00;;
34497;SDS011;20744;50.938;7.286;2023-08-31T05:41:31;13.68;;;8.00;;
34497;SDS011;20744;50.938;7.286;2023-08-31T05:44:01;11.05;;;8.13;;
34497;SDS011;20744;50.938;7.286;2023-08-31T05:46:29;12.40;;;7.93;;
34497;SDS011;20744;50.938;7.286;2023-08-31T05:48:56;13.23;;;7.80;;
34497;SDS011;20744;50.938;7.286;2023-08-31T05:51:23;13.80;;;8.30;;
34497;SDS011;20744;50.938;7.286;2023-08-31T05:53:50;14.27;;;8.68;;
34497;SDS011;20744;50.938;7.286;2023-08-31T05:56:18;15.55;;;7.97;;
34497;SDS011;20744;50.938;7.286;2023-08-31T05:58:46;13.38;;;8.10;;
34497;SDS011;20744;50.938;7.286;2023-08-31T06:01:16;20.08;;;8.32;;
34497;SDS011;20744;50.938;7.286;2023-08-31T06:03:44;12.18;;;8.02;;
34497;SDS011;20744;50.938;7.286;2023-08-31T06:06:11;17.75;;;7.95;;
34497;SDS011;20744;50.938;7.286;2023-08-31T06:08:38;13.07;;;7.60;;
34497;SDS011;20744;50.938;7.286;2023-08-31T06:11:07;13.88;;;8.25;;
34497;SDS011;20744;50.938;7.286;2023-08-31T06:13:35;12.73;;;6.70;;
34497;SDS011;20744;50.938;7.286;2023-08-31T06:16:02;11.57;;;7.60;;
34497;SDS011;20744;50.938;7.286;2023-08-31T06:18:31;14.13;;;8.27;;
34497;SDS011;20744;50.938;7.286;2023-08-31T06:20:58;10.40;;;7.88;;
34497;SDS011;20744;50.938;7.286;2023-08-31T06:23:25;17.33;;;8.10;;
34497;SDS011;20744;50.938;7.286;2023-08-31T06:25:53;12.48;;;7.53;;
34497;SDS011;20744;50.938;7.286;2023-08-31T06:28:20;12.05;;;7.30;;
34497;SDS011;20744;50.938;7.286;2023-08-31T06:30:47;11.23;;;7.10;;
34497;SDS011;20744;50.938;7.286;2023-08-31T06:33:15;10.70;;;6.40;;
34497;SDS011;20744;50.938;7.286;2023-08-31T06:35:46;11.55;;;6.00;;
34497;SDS011;20744;50.938;7.286;2023-08-31T06:38:16;8.77;;;6.00;;
34497;SDS011;20744;50.938;7.286;2023-08-31T06:40:43;10.10;;;6.57;;
34497;SDS011;20744;50.938;7.286;2023-08-31T06:43:11;12.45;;;6.07;;
34497;SDS011;20744;50.938;7.286;2023-08-31T06:45:38;13.18;;;6.65;;
34497;SDS011;20744;50.938;7.286;2023-08-31T06:48:06;10.60;;;6.10;;
34497;SDS011;20744;50.938;7.286;2023-08-31T06:50:33;9.43;;;5.28;;
34497;SDS011;20744;50.938;7.286;2023-08-31T06:53:03;8.52;;;4.68;;
34497;SDS011;20744;50.938;7.286;2023-08-31T06:55:30;10.20;;;5.20;;
34497;SDS011;20744;50.938;7.286;2023-08-31T06:57:58;7.93;;;4.80;;
34497;SDS011;20744;50.938;7.286;2023-08-31T07:00:26;6.90;;;4.40;;
34497;SDS011;20744;50.938;7.286;2023-08-31T07:02:53;10.43;;;4.57;;
34497;SDS011;20744;50.938;7.286;2023-08-31T07:05:24;9.32;;;3.60;;
34497;SDS011;20744;50.938;7.286;2023-08-31T07:07:53;7.88;;;4.10;;
34497;SDS011;20744;50.938;7.286;2023-08-31T07:10:21;6.80;;;3.80;;
34497;SDS011;20744;50.938;7.286;2023-08-31T07:12:49;7.30;;;3.75;;
34497;SDS011;20744;50.938;7.286;2023-08-31T07:15:16;6.20;;;3.20;;
34497;SDS011;20744;50.938;7.286;2023-08-31T07:17:43;6.03;;;3.17;;
34497;SDS011;20744;50.938;7.286;2023-08-31T07:20:11;7.25;;;2.97;;
34497;SDS011;20744;50.938;7.286;2023-08-31T07:22:38;4.75;;;2.83;;
34497;SDS011;20744;50.938;7.286;2023-08-31T07:25:06;8.00;;;3.00;;
34497;SDS011;20744;50.938;7.286;2023-08-31T07:27:36;8.40;;;3.17;;
34497;SDS011;20744;50.938;7.286;2023-08-31T07:30:03;6.78;;;3.90;;
34497;SDS011;20744;50.938;7.286;2023-08-31T07:32:31;9.68;;;3.20;;
34497;SDS011;20744;50.938;7.286;2023-08-31T07:34:59;5.50;;;3.38;;
34497;SDS011;20744;50.938;7.286;2023-08-31T07:37:29;6.40;;;3.60;;
34497;SDS011;20744;50.938;7.286;2023-08-31T07:39:57;10.55;;;3.92;;
34497;SDS011;20744;50.938;7.286;2023-08-31T07:42:24;10.75;;;3.60;;
34497;SDS011;20744;50.938;7.286;2023-08-31T07:44:52;7.65;;;3.38;;
34497;SDS011;20744;50.938;7.286;2023-08-31T07:47:20;12.77;;;3.78;;
34497;SDS011;20744;50.938;7.286;2023-08-31T07:49:47;8.68;;;3.90;;
34497;SDS011;20744;50.938;7.286;2023-08-31T07:52:14;8.40;;;3.70;;
34497;SDS011;20744;50.938;7.286;2023-08-31T07:54:41;9.27;;;3.42;;
34497;SDS011;20744;50.938;7.286;2023-08-31T07:57:09;9.02;;;3.60;;
34497;SDS011;20744;50.938;7.286;2023-08-31T07:59:36;9.38;;;3.10;;
34497;SDS011;20744;50.938;7.286;2023-08-31T08:02:06;8.02;;;3.50;;
34497;SDS011;20744;50.938;7.286;2023-08-31T08:04:33;10.73;;;3.00;;
34497;SDS011;20744;50.938;7.286;2023-08-31T08:07:00;11.35;;;3.28;;
34497;SDS011;20744;50.938;7.286;2023-08-31T08:09:28;6.13;;;3.10;;
34497;SDS011;20744;50.938;7.286;2023-08-31T08:11:56;8.82;;;3.17;;
34497;SDS011;20744;50.938;7.286;2023-08-31T08:14:23;6.95;;;2.83;;
34497;SDS011;20744;50.938;7.286;2023-08-31T08:16:50;6.95;;;3.03;;
34497;SDS011;20744;50.938;7.286;2023-08-31T08:19:22;9.30;;;2.88;;
34497;SDS011;20744;50.938;7.286;2023-08-31T08:21:49;5.70;;;2.70;;
34497;SDS011;20744;50.938;7.286;2023-08-31T08:24:16;12.73;;;2.80;;
34497;SDS011;20744;50.938;7.286;2023-08-31T08:26:44;7.63;;;3.00;;
34497;SDS011;20744;50.938;7.286;2023-08-31T08:29:11;7.97;;;3.10;;
34497;SDS011;20744;50.938;7.286;2023-08-31T08:31:39;7.47;;;3.25;;
34497;SDS011;20744;50.938;7.286;2023-08-31T08:34:06;8.00;;;2.92;;
34497;SDS011;20744;50.938;7.286;2023-08-31T08:36:34;9.52;;;3.20;;
34497;SDS011;20744;50.938;7.286;2023-08-31T08:39:02;9.73;;;3.33;;
34497;SDS011;20744;50.938;7.286;2023-08-31T08:41:31;6.97;;;2.50;;
34497;SDS011;20744;50.938;7.286;2023-08-31T08:44:01;8.75;;;2.72;;
34497;SDS011;20744;50.938;7.286;2023-08-31T08:46:29;4.22;;;1.98;;
34497;SDS011;20744;50.938;7.286;2023-08-31T08:48:59;6.18;;;2.20;;
34497;SDS011;20744;50.938;7.286;2023-08-31T08:51:27;6.43;;;1.90;;
34497;SDS011;20744;50.938;7.286;2023-08-31T08:53:56;5.03;;;2.10;;
34497;SDS011;20744;50.938;7.286;2023-08-31T08:56:25;7.20;;;1.90;;
34497;SDS011;20744;50.938;7.286;2023-08-31T08:58:53;5.90;;;2.10;;
34497;SDS011;20744;50.938;7.286;2023-08-31T09:01:21;6.20;;;1.88;;
34497;SDS011;20744;50.938;7.286;2023-08-31T09:03:48;10.10;;;2.40;;
34497;SDS011;20744;50.938;7.286;2023-08-31T09:06:16;5.45;;;1.75;;
34497;SDS011;20744;50.938;7.286;2023-08-31T09:08:43;8.27;;;1.77;;
34497;SDS011;20744;50.938;7.286;2023-08-31T09:11:20;6.07;;;1.80;;
34497;SDS011;20744;50.938;7.286;2023-08-31T09:13:48;5.47;;;1.38;;
34497;SDS011;20744;50.938;7.286;2023-08-31T09:19:01;3.97;;;1.25;;
34497;SDS011;20744;50.938;7.286;2023-08-31T09:21:44;12.15;;;1.85;;
34497;SDS011;20744;50.938;7.286;2023-08-31T09:24:11;6.25;;;1.65;;
34497;SDS011;20744;50.938;7.286;2023-08-31T09:26:40;7.30;;;2.25;;
34497;SDS011;20744;50.938;7.286;2023-08-31T09:29:10;5.50;;;1.77;;
34497;SDS011;20744;50.938;7.286;2023-08-31T09:31:37;7.60;;;1.83;;
34497;SDS011;20744;50.938;7.286;2023-08-31T09:34:04;8.55;;;1.73;;
34497;SDS011;20744;50.938;7.286;2023-08-31T09:36:32;6.22;;;1.70;;
34497;SDS011;20744;50.938;7.286;2023-08-31T09:38:59;7.35;;;1.90;;
34497;SDS011;20744;50.938;7.286;2023-08-31T09:41:27;5.00;;;1.63;;
34497;SDS011;20744;50.938;7.286;2023-08-31T09:43:56;5.80;;;1.30;;
34497;SDS011;20744;50.938;7.286;2023-08-31T09:46:23;4.93;;;1.40;;
34497;SDS011;20744;50.938;7.286;2023-08-31T09:48:50;4.47;;;1.08;;
34497;SDS011;20744;50.938;7.286;2023-08-31T09:51:18;3.15;;;1.42;;
34497;SDS011;20744;50.938;7.286;2023-08-31T09:53:50;4.05;;;1.27;;
34497;SDS011;20744;50.938;7.286;2023-08-31T09:56:21;7.55;;;1.55;;
34497;SDS011;20744;50.938;7.286;2023-08-31T09:58:49;3.65;;;0.95;;
34497;SDS011;20744;50.938;7.286;2023-08-31T10:01:18;4.70;;;1.30;;
34497;SDS011;20744;50.938;7.286;2023-08-31T10:03:46;4.50;;;1.45;;
34497;SDS011;20744;50.938;7.286;2023-08-31T10:06:13;7.10;;;1.55;;
34497;SDS011;20744;50.938;7.286;2023-08-31T10:08:40;5.50;;;1.40;;
34497;SDS011;20744;50.938;7.286;2023-08-31T10:11:08;4.07;;;1.25;;
34497;SDS011;20744;50.938;7.286;2023-08-31T10:13:38;6.53;;;1.10;;
34497;SDS011;20744;50.938;7.286;2023-08-31T10:16:06;6.40;;;1.60;;
34497;SDS011;20744;50.938;7.286;2023-08-31T10:18:35;4.93;;;1.33;;
34497;SDS011;20744;50.938;7.286;2023-08-31T10:21:02;3.67;;;1.33;;
34497;SDS011;20744;50.938;7.286;2023-08-31T10:23:30;5.30;;;1.02;;
34497;SDS011;20744;50.938;7.286;2023-08-31T10:26:01;5.05;;;1.17;;
34497;SDS011;20744;50.938;7.286;2023-08-31T10:28:30;7.15;;;1.20;;
34497;SDS011;20744;50.938;7.286;2023-08-31T10:33:33;5.88;;;1.50;;
34497;SDS011;20744;50.938;7.286;2023-08-31T10:36:02;5.93;;;1.42;;
34497;SDS011;20744;50.938;7.286;2023-08-31T10:38:30;3.65;;;1.30;;
34497;SDS011;20744;50.938;7.286;2023-08-31T10:41:01;4.80;;;1.27;;
34497;SDS011;20744;50.938;7.286;2023-08-31T10:43:42;2.45;;;1.10;;
34497;SDS011;20744;50.938;7.286;2023-08-31T10:46:17;2.92;;;0.98;;
34497;SDS011;20744;50.938;7.286;2023-08-31T10:48:50;4.60;;;1.10;;
34497;SDS011;20744;50.938;7.286;2023-08-31T10:51:19;4.15;;;1.20;;
34497;SDS011;20744;50.938;7.286;2023-08-31T10:53:48;3.60;;;0.98;;
34497;SDS011;20744;50.938;7.286;2023-08-31T10:56:15;4.38;;;1.27;;
34497;SDS011;20744;50.938;7.286;2023-08-31T10:58:43;3.17;;;1.00;;
34497;SDS011;20744;50.938;7.286;2023-08-31T11:01:10;7.75;;;1.30;;
34497;SDS011;20744;50.938;7.286;2023-08-31T11:06:25;3.95;;;1.30;;
34497;SDS011;20744;50.938;7.286;2023-08-31T11:08:55;6.78;;;1.23;;
34497;SDS011;20744;50.938;7.286;2023-08-31T11:11:22;3.35;;;0.98;;
34497;SDS011;20744;50.938;7.286;2023-08-31T11:13:56;2.20;;;0.82;;
34497;SDS011;20744;50.938;7.286;2023-08-31T11:16:23;5.80;;;1.27;;
34497;SDS011;20744;50.938;7.286;2023-08-31T11:18:50;4.43;;;1.17;;
34497;SDS011;20744;50.938;7.286;2023-08-31T11:21:18;4.32;;;1.08;;
34497;SDS011;20744;50.938;7.286;2023-08-31T11:23:48;4.53;;;1.35;;
34497;SDS011;20744;50.938;7.286;2023-08-31T11:26:17;3.95;;;1.27;;
34497;SDS011;20744;50.938;7.286;2023-08-31T11:28:45;5.10;;;1.27;;
34497;SDS011;20744;50.938;7.286;2023-08-31T11:31:12;3.25;;;0.88;;
34497;SDS011;20744;50.938;7.286;2023-08-31T11:33:39;4.75;;;1.27;;
34497;SDS011;20744;50.938;7.286;2023-08-31T11:36:07;4.20;;;0.85;;
34497;SDS011;20744;50.938;7.286;2023-08-31T11:38:36;3.75;;;1.02;;
34497;SDS011;20744;50.938;7.286;2023-08-31T11:41:05;4.72;;;1.20;;
34497;SDS011;20744;50.938;7.286;2023-08-31T11:43:32;5.78;;;1.02;;
34497;SDS011;20744;50.938;7.286;2023-08-31T11:45:59;2.60;;;1.20;;
34497;SDS011;20744;50.938;7.286;2023-08-31T11:48:28;5.88;;;1.20;;
34497;SDS011;20744;50.938;7.286;2023-08-31T11:50:55;3.58;;;1.17;;
34497;SDS011;20744;50.938;7.286;2023-08-31T11:53:22;4.85;;;1.02;;
34497;SDS011;20744;50.938;7.286;2023-08-31T11:55:51;2.95;;;0.90;;
34497;SDS011;20744;50.938;7.286;2023-08-31T11:58:20;5.43;;;1.20;;
34497;SDS011;20744;50.938;7.286;2023-08-31T12:00:54;4.82;;;1.10;;
34497;SDS011;20744;50.938;7.286;2023-08-31T12:03:21;6.57;;;1.30;;
34497;SDS011;20744;50.938;7.286;2023-08-31T12:05:50;4.90;;;1.48;;
34497;SDS011;20744;50.938;7.286;2023-08-31T12:08:23;8.38;;;1.48;;
34497;SDS011;20744;50.938;7.286;2023-08-31T12:10:51;4.90;;;1.27;;
34497;SDS011;20744;50.938;7.286;2023-08-31T12:13:25;10.18;;;1.50;;
34497;SDS011;20744;50.938;7.286;2023-08-31T12:15:53;6.03;;;1.63;;
34497;SDS011;20744;50.938;7.286;2023-08-31T12:18:21;4.68;;;1.30;;
34497;SDS011;20744;50.938;7.286;2023-08-31T12:20:49;4.70;;;1.10;;
34497;SDS011;20744;50.938;7.286;2023-08-31T12:23:17;7.00;;;1.60;;
34497;SDS011;20744;50.938;7.286;2023-08-31T12:25:47;4.75;;;1.10;;
34497;SDS011;20744;50.938;7.286;2023-08-31T12:28:14;4.82;;;1.20;;
34497;SDS011;20744;50.938;7.286;2023-08-31T12:30:48;4.55;;;1.10;;
34497;SDS011;20744;50.938;7.286;2023-08-31T12:33:18;4.95;;;1.13;;
34497;SDS011;20744;50.938;7.286;2023-08-31T12:35:46;4.60;;;1.10;;
34497;SDS011;20744;50.938;7.286;2023-08-31T12:38:13;5.10;;;1.10;;
34497;SDS011;20744;50.938;7.286;2023-08-31T12:40:40;2.65;;;0.80;;
34497;SDS011;20744;50.938;7.286;2023-08-31T12:43:08;7.57;;;1.13;;
34497;SDS011;20744;50.938;7.286;2023-08-31T12:45:36;1.75;;;0.90;;
34497;SDS011;20744;50.938;7.286;2023-08-31T12:48:04;3.95;;;1.02;;
34497;SDS011;20744;50.938;7.286;2023-08-31T12:50:32;1.65;;;0.90;;
34497;SDS011;20744;50.938;7.286;2023-08-31T12:52:59;2.38;;;0.80;;
34497;SDS011;20744;50.938;7.286;2023-08-31T12:55:26;2.85;;;0.90;;
34497;SDS011;20744;50.938;7.286;2023-08-31T12:57:55;5.10;;;0.85;;
34497;SDS011;20744;50.938;7.286;2023-08-31T13:00:23;4.80;;;1.23;;
34497;SDS011;20744;50.938;7.286;2023-08-31T13:02:50;2.00;;;1.17;;
34497;SDS011;20744;50.938;7.286;2023-08-31T13:05:19;2.22;;;0.88;;
34497;SDS011;20744;50.938;7.286;2023-08-31T13:07:46;3.05;;;1.02;;
34497;SDS011;20744;50.938;7.286;2023-08-31T13:10:13;6.32;;;1.15;;
34497;SDS011;20744;50.938;7.286;2023-08-31T13:12:41;3.78;;;1.20;;
34497;SDS011;20744;50.938;7.286;2023-08-31T13:15:09;2.22;;;0.98;;
34497;SDS011;20744;50.938;7.286;2023-08-31T13:17:36;5.22;;;1.20;;
34497;SDS011;20744;50.938;7.286;2023-08-31T13:20:04;5.43;;;1.50;;
34497;SDS011;20744;50.938;7.286;2023-08-31T13:22:34;3.58;;;1.40;;
34497;SDS011;20744;50.938;7.286;2023-08-31T13:25:02;4.93;;;1.33;;
34497;SDS011;20744;50.938;7.286;2023-08-31T13:27:30;4.25;;;1.42;;
34497;SDS011;20744;50.938;7.286;2023-08-31T13:29:58;3.47;;;1.25;;
34497;SDS011;20744;50.938;7.286;2023-08-31T13:32:26;4.22;;;1.27;;
34497;SDS011;20744;50.938;7.286;2023-08-31T13:34:53;4.07;;;1.30;;
34497;SDS011;20744;50.938;7.286;2023-08-31T13:37:20;3.47;;;1.27;;
34497;SDS011;20744;50.938;7.286;2023-08-31T13:39:50;4.90;;;1.45;;
34497;SDS011;20744;50.938;7.286;2023-08-31T13:42:19;6.00;;;1.52;;
34497;SDS011;20744;50.938;7.286;2023-08-31T13:44:47;5.03;;;1.42;;
34497;SDS011;20744;50.938;7.286;2023-08-31T13:47:14;4.60;;;1.55;;
34497;SDS011;20744;50.938;7.286;2023-08-31T13:49:41;3.03;;;1.23;;
34497;SDS011;20744;50.938;7.286;2023-08-31T13:52:08;5.10;;;1.35;;
34497;SDS011;20744;50.938;7.286;2023-08-31T13:54:37;3.22;;;1.25;;
34497;SDS011;20744;50.938;7.286;2023-08-31T13:57:05;3.92;;;1.30;;
34497;SDS011;20744;50.938;7.286;2023-08-31T13:59:32;6.30;;;1.25;;
34497;SDS011;20744;50.938;7.286;2023-08-31T14:02:00;5.32;;;1.00;;
34497;SDS011;20744;50.938;7.286;2023-08-31T14:04:29;5.35;;;1.63;;
34497;SDS011;20744;50.938;7.286;2023-08-31T14:06:56;5.85;;;1.30;;
34497;SDS011;20744;50.938;7.286;2023-08-31T14:09:24;5.32;;;1.58;;
34497;SDS011;20744;50.938;7.286;2023-08-31T14:11:53;6.68;;;1.38;;
34497;SDS011;20744;50.938;7.286;2023-08-31T14:14:23;7.10;;;1.80;;
34497;SDS011;20744;50.938;7.286;2023-08-31T14:16:50;3.25;;;1.15;;
34497;SDS011;20744;50.938;7.286;2023-08-31T14:19:18;5.53;;;1.40;;
34497;SDS011;20744;50.938;7.286;2023-08-31T14:21:45;6.90;;;1.73;;
34497;SDS011;20744;50.938;7.286;2023-08-31T14:24:12;6.32;;;1.52;;
34497;SDS011;20744;50.938;7.286;2023-08-31T14:26:39;9.13;;;1.83;;
34497;SDS011;20744;50.938;7.286;2023-08-31T14:29:06;4.55;;;1.42;;
34497;SDS011;20744;50.938;7.286;2023-08-31T14:31:35;6.65;;;1.45;;
34497;SDS011;20744;50.938;7.286;2023-08-31T14:34:02;4.10;;;1.30;;
34497;SDS011;20744;50.938;7.286;2023-08-31T14:36:30;5.03;;;1.45;;
34497;SDS011;20744;50.938;7.286;2023-08-31T14:38:57;6.60;;;1.20;;
34497;SDS011;20744;50.938;7.286;2023-08-31T14:41:24;5.93;;;1.40;;
34497;SDS011;20744;50.938;7.286;2023-08-31T14:43:52;5.90;;;1.70;;
34497;SDS011;20744;50.938;7.286;2023-08-31T14:46:19;5.90;;;1.63;;
34497;SDS011;20744;50.938;7.286;2023-08-31T14:48:48;5.10;;;1.98;;
34497;SDS011;20744;50.938;7.286;2023-08-31T14:51:15;6.60;;;1.40;;
34497;SDS011;20744;50.938;7.286;2023-08-31T14:53:43;8.40;;;1.73;;